sensor_id;sensor_type;location;lat;lon;timestamp;pressure;altitude;pressure_sealevel;temperature;humidity
74065;BME280;62421;51.412;5.432;2023-06-14T00:02:10;101244.13;;;19.16;46.11
74065;BME280;62421;51.412;5.432;2023-06-14T00:04:36;101244.13;;;19.16;45.52
74065;BME280;62421;51.412;5.432;2023-06-14T00:07:03;101237.97;;;19.14;45.73
74065;BME280;62421;51.412;5.432;2023-06-14T00:09:28;101238.31;;;19.11;46.15
74065;BME280;62421;51.412;5.432;2023-06-14T00:11:53;101238.91;;;19.05;46.27
74065;BME280;62421;51.412;5.432;2023-06-14T00:14:19;101235.09;;;18.97;46.65
74065;BME280;62421;51.412;5.432;2023-06-14T00:16:44;101247.44;;;18.92;46.85
74065;BME280;62421;51.412;5.432;2023-06-14T00:19:10;101249.47;;;18.90;46.08
74065;BME280;62421;51.412;5.432;2023-06-14T00:21:38;101252.31;;;18.88;46.95
74065;BME280;62421;51.412;5.432;2023-06-14T00:24:04;101251.09;;;18.82;46.43
74065;BME280;62421;51.412;5.432;2023-06-14T00:26:29;101255.22;;;18.77;46.77
74065;BME280;62421;51.412;5.432;2023-06-14T00:28:55;101250.81;;;18.76;46.21
74065;BME280;62421;51.412;5.432;2023-06-14T00:31:22;101251.09;;;18.73;46.20
74065;BME280;62421;51.412;5.432;2023-06-14T00:33:47;101255.69;;;18.72;46.36
74065;BME280;62421;51.412;5.432;2023-06-14T00:36:13;101253.56;;;18.66;46.20
74065;BME280;62421;51.412;5.432;2023-06-14T00:38:38;101259.00;;;18.66;46.04
74065;BME280;62421;51.412;5.432;2023-06-14T00:41:03;101251.84;;;18.65;46.50
74065;BME280;62421;51.412;5.432;2023-06-14T00:43:29;101257.56;;;18.62;46.27
74065;BME280;62421;51.412;5.432;2023-06-14T00:45:54;101262.16;;;18.61;45.69
74065;BME280;62421;51.412;5.432;2023-06-14T00:48:20;101255.16;;;18.59;46.14
74065;BME280;62421;51.412;5.432;2023-06-14T00:50:46;101253.91;;;18.53;45.77
74065;BME280;62421;51.412;5.432;2023-06-14T00:53:14;101249.94;;;18.48;46.09
74065;BME280;62421;51.412;5.432;2023-06-14T00:55:40;101247.94;;;18.40;47.25
74065;BME280;62421;51.412;5.432;2023-06-14T00:58:06;101252.53;;;18.39;45.92
74065;BME280;62421;51.412;5.432;2023-06-14T01:00:31;101255.25;;;18.39;45.99
74065;BME280;62421;51.412;5.432;2023-06-14T01:02:57;101258.41;;;18.35;46.66
74065;BME280;62421;51.412;5.432;2023-06-14T01:05:23;101251.00;;;18.27;45.71
74065;BME280;62421;51.412;5.432;2023-06-14T01:10:29;101261.28;;;18.24;45.80
74065;BME280;62421;51.412;5.432;2023-06-14T01:15:31;101258.31;;;18.17;46.62
74065;BME280;62421;51.412;5.432;2023-06-14T01:17:57;101252.47;;;18.12;46.07
74065;BME280;62421;51.412;5.432;2023-06-14T01:20:32;101261.59;;;18.11;46.50
74065;BME280;62421;51.412;5.432;2023-06-14T01:23:01;101263.78;;;18.07;46.03
74065;BME280;62421;51.412;5.432;2023-06-14T01:25:27;101264.78;;;18.06;46.16
74065;BME280;62421;51.412;5.432;2023-06-14T01:27:57;101256.47;;;18.08;45.54
74065;BME280;62421;51.412;5.432;2023-06-14T01:30:24;101262.19;;;18.05;46.01
74065;BME280;62421;51.412;5.432;2023-06-14T01:32:54;101260.63;;;18.02;45.87
74065;BME280;62421;51.412;5.432;2023-06-14T01:35:21;101260.50;;;18.04;46.01
74065;BME280;62421;51.412;5.432;2023-06-14T01:37:47;101260.22;;;17.97;46.31
74065;BME280;62421;51.412;5.432;2023-06-14T01:40:14;101256.06;;;17.93;46.05
74065;BME280;62421;51.412;5.432;2023-06-14T01:42:40;101254.06;;;17.85;47.68
74065;BME280;62421;51.412;5.432;2023-06-14T01:45:07;101263.66;;;17.79;46.62
74065;BME280;62421;51.412;5.432;2023-06-14T01:47:34;101260.22;;;17.77;46.22
74065;BME280;62421;51.412;5.432;2023-06-14T01:50:04;101259.38;;;17.77;46.44
74065;BME280;62421;51.412;5.432;2023-06-14T01:52:30;101256.91;;;17.74;46.33
74065;BME280;62421;51.412;5.432;2023-06-14T01:54:56;101250.94;;;17.70;46.80
74065;BME280;62421;51.412;5.432;2023-06-14T01:57:23;101251.34;;;17.66;46.63
74065;BME280;62421;51.412;5.432;2023-06-14T01:59:50;101251.66;;;17.63;46.75
74065;BME280;62421;51.412;5.432;2023-06-14T02:02:16;101242.91;;;17.59;46.78
74065;BME280;62421;51.412;5.432;2023-06-14T02:04:41;101243.66;;;17.51;46.98
74065;BME280;62421;51.412;5.432;2023-06-14T02:07:07;101238.78;;;17.45;47.09
74065;BME280;62421;51.412;5.432;2023-06-14T02:09:33;101263.09;;;17.47;47.58
74065;BME280;62421;51.412;5.432;2023-06-14T02:12:00;101260.50;;;17.35;47.88
74065;BME280;62421;51.412;5.432;2023-06-14T02:14:25;101256.50;;;17.30;47.64
74065;BME280;62421;51.412;5.432;2023-06-14T02:16:51;101259.34;;;17.28;48.53
74065;BME280;62421;51.412;5.432;2023-06-14T02:19:18;101251.63;;;17.24;48.25
74065;BME280;62421;51.412;5.432;2023-06-14T02:21:45;101259.91;;;17.22;48.72
74065;BME280;62421;51.412;5.432;2023-06-14T02:24:10;101264.19;;;17.15;47.99
74065;BME280;62421;51.412;5.432;2023-06-14T02:26:36;101263.34;;;17.14;48.17
74065;BME280;62421;51.412;5.432;2023-06-14T02:29:07;101259.31;;;17.09;48.12
74065;BME280;62421;51.412;5.432;2023-06-14T02:31:35;101273.56;;;17.01;48.56
74065;BME280;62421;51.412;5.432;2023-06-14T02:34:00;101268.44;;;16.98;48.89
74065;BME280;62421;51.412;5.432;2023-06-14T02:36:26;101275.97;;;16.94;48.87
74065;BME280;62421;51.412;5.432;2023-06-14T02:38:51;101275.53;;;16.89;48.83
74065;BME280;62421;51.412;5.432;2023-06-14T02:41:19;101275.81;;;16.86;49.15
74065;BME280;62421;51.412;5.432;2023-06-14T02:43:44;101266.94;;;16.84;49.16
74065;BME280;62421;51.412;5.432;2023-06-14T02:46:10;101274.53;;;16.81;49.18
74065;BME280;62421;51.412;5.432;2023-06-14T02:48:36;101281.19;;;16.76;49.75
74065;BME280;62421;51.412;5.432;2023-06-14T02:51:01;101277.75;;;16.74;49.61
74065;BME280;62421;51.412;5.432;2023-06-14T02:53:27;101278.28;;;16.68;49.70
74065;BME280;62421;51.412;5.432;2023-06-14T02:55:52;101288.41;;;16.66;50.69
74065;BME280;62421;51.412;5.432;2023-06-14T02:58:18;101273.41;;;16.62;49.81
74065;BME280;62421;51.412;5.432;2023-06-14T03:00:44;101282.09;;;16.56;50.12
74065;BME280;62421;51.412;5.432;2023-06-14T03:03:09;101283.22;;;16.53;50.06
74065;BME280;62421;51.412;5.432;2023-06-14T03:05:41;101284.47;;;16.49;50.24
74065;BME280;62421;51.412;5.432;2023-06-14T03:08:11;101286.47;;;16.47;50.28
74065;BME280;62421;51.412;5.432;2023-06-14T03:10:47;101295.72;;;16.45;50.19
74065;BME280;62421;51.412;5.432;2023-06-14T03:13:13;101289.88;;;16.40;50.54
74065;BME280;62421;51.412;5.432;2023-06-14T03:15:39;101297.28;;;16.37;51.13
74065;BME280;62421;51.412;5.432;2023-06-14T03:18:07;101295.81;;;16.33;50.96
74065;BME280;62421;51.412;5.432;2023-06-14T03:20:33;101297.81;;;16.31;51.34
74065;BME280;62421;51.412;5.432;2023-06-14T03:23:02;101299.06;;;16.27;51.04
74065;BME280;62421;51.412;5.432;2023-06-14T03:25:28;101301.91;;;16.26;51.63
74065;BME280;62421;51.412;5.432;2023-06-14T03:27:58;101295.03;;;16.22;50.84
74065;BME280;62421;51.412;5.432;2023-06-14T03:30:24;101295.19;;;16.20;51.55
74065;BME280;62421;51.412;5.432;2023-06-14T03:32:49;101304.44;;;16.17;51.48
74065;BME280;62421;51.412;5.432;2023-06-14T03:35:17;101300.84;;;16.17;51.46
74065;BME280;62421;51.412;5.432;2023-06-14T03:37:46;101300.84;;;16.17;51.67
74065;BME280;62421;51.412;5.432;2023-06-14T03:40:12;101309.97;;;16.16;51.90
74065;BME280;62421;51.412;5.432;2023-06-14T03:42:39;101305.69;;;16.13;51.87
74065;BME280;62421;51.412;5.432;2023-06-14T03:45:05;101309.25;;;16.14;51.90
74065;BME280;62421;51.412;5.432;2023-06-14T03:47:36;101312.38;;;16.09;53.55
74065;BME280;62421;51.412;5.432;2023-06-14T03:50:05;101313.34;;;16.08;52.31
74065;BME280;62421;51.412;5.432;2023-06-14T03:52:30;101307.91;;;16.08;52.76
74065;BME280;62421;51.412;5.432;2023-06-14T03:54:56;101311.63;;;16.07;52.94
74065;BME280;62421;51.412;5.432;2023-06-14T03:57:23;101317.91;;;16.08;54.04
74065;BME280;62421;51.412;5.432;2023-06-14T03:59:48;101313.63;;;16.05;53.10
74065;BME280;62421;51.412;5.432;2023-06-14T04:02:13;101307.34;;;16.05;52.73
74065;BME280;62421;51.412;5.432;2023-06-14T04:04:43;101309.03;;;16.06;52.76
74065;BME280;62421;51.412;5.432;2023-06-14T04:07:14;101314.59;;;16.04;54.64
74065;BME280;62421;51.412;5.432;2023-06-14T04:09:41;101310.31;;;16.02;53.80
74065;BME280;62421;51.412;5.432;2023-06-14T04:12:07;101319.28;;;16.02;52.32
74065;BME280;62421;51.412;5.432;2023-06-14T04:14:34;101318.19;;;16.05;52.91
74065;BME280;62421;51.412;5.432;2023-06-14T04:16:59;101322.72;;;16.04;57.27
74065;BME280;62421;51.412;5.432;2023-06-14T04:19:25;101323.84;;;16.02;57.10
74065;BME280;62421;51.412;5.432;2023-06-14T04:21:50;101327.56;;;16.01;54.39
74065;BME280;62421;51.412;5.432;2023-06-14T04:24:16;101325.31;;;16.06;54.60
74065;BME280;62421;51.412;5.432;2023-06-14T04:26:42;101329.75;;;16.07;54.65
74065;BME280;62421;51.412;5.432;2023-06-14T04:29:14;101328.75;;;16.08;58.80
74065;BME280;62421;51.412;5.432;2023-06-14T04:31:41;101327.72;;;16.09;59.44
74065;BME280;62421;51.412;5.432;2023-06-14T04:34:07;101330.31;;;16.10;61.16
74065;BME280;62421;51.412;5.432;2023-06-14T04:36:33;101331.03;;;16.12;55.76
74065;BME280;62421;51.412;5.432;2023-06-14T04:39:06;101325.09;;;16.18;55.20
74065;BME280;62421;51.412;5.432;2023-06-14T04:41:32;101332.84;;;16.23;56.23
74065;BME280;62421;51.412;5.432;2023-06-14T04:44:00;101335.00;;;16.50;59.65
74065;BME280;62421;51.412;5.432;2023-06-14T04:46:29;101336.22;;;17.48;56.92
74065;BME280;62421;51.412;5.432;2023-06-14T04:48:57;101333.78;;;18.52;48.00
74065;BME280;62421;51.412;5.432;2023-06-14T04:51:22;101336.66;;;19.43;46.01
74065;BME280;62421;51.412;5.432;2023-06-14T04:53:57;101332.53;;;20.29;44.75
74065;BME280;62421;51.412;5.432;2023-06-14T04:56:24;101331.41;;;20.92;44.45
74065;BME280;62421;51.412;5.432;2023-06-14T04:58:50;101330.78;;;21.49;42.26
74065;BME280;62421;51.412;5.432;2023-06-14T05:01:15;101337.66;;;21.86;39.61
74065;BME280;62421;51.412;5.432;2023-06-14T05:03:41;101335.63;;;22.13;43.22
74065;BME280;62421;51.412;5.432;2023-06-14T05:06:06;101338.72;;;22.42;39.82
74065;BME280;62421;51.412;5.432;2023-06-14T05:08:31;101339.69;;;22.66;42.11
74065;BME280;62421;51.412;5.432;2023-06-14T05:10:57;101338.22;;;22.95;42.60
74065;BME280;62421;51.412;5.432;2023-06-14T05:13:22;101331.44;;;23.30;37.67
74065;BME280;62421;51.412;5.432;2023-06-14T05:15:48;101342.19;;;23.31;42.04
74065;BME280;62421;51.412;5.432;2023-06-14T05:18:14;101337.69;;;23.47;39.57
74065;BME280;62421;51.412;5.432;2023-06-14T05:20:40;101340.91;;;23.82;38.59
74065;BME280;62421;51.412;5.432;2023-06-14T05:23:07;101339.41;;;24.17;41.57
74065;BME280;62421;51.412;5.432;2023-06-14T05:25:32;101345.66;;;24.26;40.04
74065;BME280;62421;51.412;5.432;2023-06-14T05:27:58;101335.34;;;23.90;36.91
74065;BME280;62421;51.412;5.432;2023-06-14T05:30:23;101339.19;;;24.04;35.54
74065;BME280;62421;51.412;5.432;2023-06-14T05:32:48;101338.94;;;24.14;38.28
74065;BME280;62421;51.412;5.432;2023-06-14T05:35:15;101340.41;;;24.01;37.71
74065;BME280;62421;51.412;5.432;2023-06-14T05:37:40;101345.91;;;23.70;36.50
74065;BME280;62421;51.412;5.432;2023-06-14T05:40:06;101350.63;;;22.66;37.96
74065;BME280;62421;51.412;5.432;2023-06-14T05:42:34;101358.47;;;21.62;42.50
74065;BME280;62421;51.412;5.432;2023-06-14T05:44:59;101356.19;;;20.73;45.24
74065;BME280;62421;51.412;5.432;2023-06-14T05:47:25;101354.53;;;19.92;44.15
74065;BME280;62421;51.412;5.432;2023-06-14T05:49:50;101366.00;;;19.50;48.18
74065;BME280;62421;51.412;5.432;2023-06-14T05:52:16;101371.34;;;19.14;53.33
74065;BME280;62421;51.412;5.432;2023-06-14T05:54:41;101363.47;;;18.83;54.10
74065;BME280;62421;51.412;5.432;2023-06-14T05:57:07;101360.78;;;18.63;54.56
74065;BME280;62421;51.412;5.432;2023-06-14T05:59:32;101363.13;;;18.49;49.58
74065;BME280;62421;51.412;5.432;2023-06-14T06:01:57;101362.56;;;18.35;49.95
74065;BME280;62421;51.412;5.432;2023-06-14T06:04:23;101374.59;;;18.33;50.47
74065;BME280;62421;51.412;5.432;2023-06-14T06:06:48;101383.75;;;18.32;54.54
74065;BME280;62421;51.412;5.432;2023-06-14T06:09:15;101382.03;;;18.31;55.53
74065;BME280;62421;51.412;5.432;2023-06-14T06:11:40;101378.75;;;18.27;56.05
74065;BME280;62421;51.412;5.432;2023-06-14T06:14:06;101382.31;;;18.28;53.72
74065;BME280;62421;51.412;5.432;2023-06-14T06:16:32;101384.50;;;18.24;57.94
74065;BME280;62421;51.412;5.432;2023-06-14T06:18:58;101385.16;;;18.26;52.79
74065;BME280;62421;51.412;5.432;2023-06-14T06:21:24;101385.88;;;18.28;50.18
74065;BME280;62421;51.412;5.432;2023-06-14T06:23:49;101389.19;;;18.32;51.11
74065;BME280;62421;51.412;5.432;2023-06-14T06:26:15;101396.34;;;18.33;51.20
74065;BME280;62421;51.412;5.432;2023-06-14T06:28:40;101397.19;;;18.33;49.97
74065;BME280;62421;51.412;5.432;2023-06-14T06:31:06;101398.91;;;18.34;49.46
74065;BME280;62421;51.412;5.432;2023-06-14T06:33:31;101403.22;;;18.37;51.77
74065;BME280;62421;51.412;5.432;2023-06-14T06:35:57;101398.47;;;18.39;54.99
74065;BME280;62421;51.412;5.432;2023-06-14T06:38:22;101404.06;;;18.37;56.47
74065;BME280;62421;51.412;5.432;2023-06-14T06:40:47;101411.78;;;18.42;50.28
74065;BME280;62421;51.412;5.432;2023-06-14T06:43:13;101416.78;;;18.47;49.97
74065;BME280;62421;51.412;5.432;2023-06-14T06:45:39;101418.06;;;18.52;49.86
74065;BME280;62421;51.412;5.432;2023-06-14T06:48:05;101418.19;;;18.60;51.61
74065;BME280;62421;51.412;5.432;2023-06-14T06:50:30;101421.75;;;18.71;50.55
74065;BME280;62421;51.412;5.432;2023-06-14T06:52:56;101425.19;;;18.82;50.69
74065;BME280;62421;51.412;5.432;2023-06-14T06:55:21;101419.88;;;18.91;49.02
74065;BME280;62421;51.412;5.432;2023-06-14T06:57:47;101419.13;;;18.98;51.33
74065;BME280;62421;51.412;5.432;2023-06-14T07:00:12;101422.81;;;19.07;51.48
74065;BME280;62421;51.412;5.432;2023-06-14T07:02:38;101420.06;;;19.17;49.28
74065;BME280;62421;51.412;5.432;2023-06-14T07:05:03;101432.19;;;19.22;55.78
74065;BME280;62421;51.412;5.432;2023-06-14T07:07:29;101429.59;;;19.31;52.36
74065;BME280;62421;51.412;5.432;2023-06-14T07:09:54;101430.69;;;19.38;51.75
74065;BME280;62421;51.412;5.432;2023-06-14T07:12:22;101434.56;;;19.45;49.11
74065;BME280;62421;51.412;5.432;2023-06-14T07:14:48;101433.50;;;19.56;47.32
74065;BME280;62421;51.412;5.432;2023-06-14T07:17:13;101433.59;;;19.64;48.15
74065;BME280;62421;51.412;5.432;2023-06-14T07:19:38;101439.31;;;19.71;47.03
74065;BME280;62421;51.412;5.432;2023-06-14T07:22:04;101432.94;;;19.80;48.69
74065;BME280;62421;51.412;5.432;2023-06-14T07:24:29;101440.50;;;19.86;49.64
74065;BME280;62421;51.412;5.432;2023-06-14T07:26:55;101443.31;;;19.94;45.63
74065;BME280;62421;51.412;5.432;2023-06-14T07:29:21;101439.50;;;20.05;47.14
74065;BME280;62421;51.412;5.432;2023-06-14T07:31:47;101449.25;;;20.08;45.66
74065;BME280;62421;51.412;5.432;2023-06-14T07:34:12;101452.06;;;20.16;45.03
74065;BME280;62421;51.412;5.432;2023-06-14T07:36:37;101451.88;;;20.17;47.76
74065;BME280;62421;51.412;5.432;2023-06-14T07:39:03;101458.75;;;20.21;46.03
74065;BME280;62421;51.412;5.432;2023-06-14T07:41:31;101451.81;;;20.27;44.48
74065;BME280;62421;51.412;5.432;2023-06-14T07:43:56;101453.75;;;20.35;44.65
74065;BME280;62421;51.412;5.432;2023-06-14T07:46:21;101459.59;;;20.40;47.55
74065;BME280;62421;51.412;5.432;2023-06-14T07:48:47;101461.16;;;20.42;47.63
74065;BME280;62421;51.412;5.432;2023-06-14T07:51:13;101459.50;;;20.50;47.19
74065;BME280;62421;51.412;5.432;2023-06-14T07:53:38;101459.06;;;20.54;46.95
74065;BME280;62421;51.412;5.432;2023-06-14T07:56:04;101466.94;;;20.57;45.61
74065;BME280;62421;51.412;5.432;2023-06-14T07:58:29;101464.75;;;20.61;46.12
74065;BME280;62421;51.412;5.432;2023-06-14T08:00:54;101468.41;;;20.70;46.04
74065;BME280;62421;51.412;5.432;2023-06-14T08:03:20;101473.38;;;20.74;47.58
74065;BME280;62421;51.412;5.432;2023-06-14T08:05:48;101479.91;;;20.81;47.40
74065;BME280;62421;51.412;5.432;2023-06-14T08:08:13;101473.97;;;20.86;44.57
74065;BME280;62421;51.412;5.432;2023-06-14T08:10:39;101475.44;;;20.98;49.98
74065;BME280;62421;51.412;5.432;2023-06-14T08:13:04;101479.41;;;21.04;44.49
74065;BME280;62421;51.412;5.432;2023-06-14T08:15:30;101475.84;;;21.12;43.83
74065;BME280;62421;51.412;5.432;2023-06-14T08:17:55;101470.78;;;21.17;44.80
74065;BME280;62421;51.412;5.432;2023-06-14T08:20:21;101475.75;;;21.21;44.40
74065;BME280;62421;51.412;5.432;2023-06-14T08:22:46;101468.25;;;21.23;44.64
74065;BME280;62421;51.412;5.432;2023-06-14T08:25:12;101470.78;;;21.25;45.09
74065;BME280;62421;51.412;5.432;2023-06-14T08:27:38;101472.19;;;21.29;42.72
74065;BME280;62421;51.412;5.432;2023-06-14T08:30:04;101473.56;;;21.33;47.32
74065;BME280;62421;51.412;5.432;2023-06-14T08:32:29;101469.84;;;21.34;44.65
74065;BME280;62421;51.412;5.432;2023-06-14T08:34:55;101477.25;;;21.42;43.22
74065;BME280;62421;51.412;5.432;2023-06-14T08:37:20;101475.91;;;21.46;44.47
74065;BME280;62421;51.412;5.432;2023-06-14T08:39:46;101477.28;;;21.50;42.90
74065;BME280;62421;51.412;5.432;2023-06-14T08:42:12;101486.88;;;21.54;42.17
74065;BME280;62421;51.412;5.432;2023-06-14T08:44:39;101477.31;;;21.58;42.10
74065;BME280;62421;51.412;5.432;2023-06-14T08:47:05;101475.97;;;21.62;43.71
74065;BME280;62421;51.412;5.432;2023-06-14T08:49:32;101471.41;;;21.71;43.55
74065;BME280;62421;51.412;5.432;2023-06-14T08:51:59;101468.84;;;21.78;40.75
74065;BME280;62421;51.412;5.432;2023-06-14T08:54:28;101473.66;;;21.84;40.92
74065;BME280;62421;51.412;5.432;2023-06-14T08:56:59;101467.53;;;21.90;41.28
74065;BME280;62421;51.412;5.432;2023-06-14T08:59:28;101475.91;;;21.97;39.79
74065;BME280;62421;51.412;5.432;2023-06-14T09:01:54;101470.94;;;22.00;45.95
74065;BME280;62421;51.412;5.432;2023-06-14T09:04:23;101475.75;;;22.06;39.99
74065;BME280;62421;51.412;5.432;2023-06-14T09:06:55;101468.09;;;22.10;41.16
74065;BME280;62421;51.412;5.432;2023-06-14T09:09:21;101473.88;;;22.15;40.70
74065;BME280;62421;51.412;5.432;2023-06-14T09:11:49;101463.31;;;22.20;38.45
74065;BME280;62421;51.412;5.432;2023-06-14T09:14:15;101472.06;;;22.24;38.00
74065;BME280;62421;51.412;5.432;2023-06-14T09:16:40;101466.59;;;22.32;38.07
74065;BME280;62421;51.412;5.432;2023-06-14T09:19:05;101474.97;;;22.39;38.48
74065;BME280;62421;51.412;5.432;2023-06-14T09:21:34;101471.22;;;22.40;35.84
74065;BME280;62421;51.412;5.432;2023-06-14T09:24:01;101467.13;;;22.44;35.19
74065;BME280;62421;51.412;5.432;2023-06-14T09:26:27;101472.41;;;22.45;33.60
74065;BME280;62421;51.412;5.432;2023-06-14T09:28:52;101469.19;;;22.50;41.27
74065;BME280;62421;51.412;5.432;2023-06-14T09:31:20;101468.00;;;22.53;35.79
74065;BME280;62421;51.412;5.432;2023-06-14T09:33:47;101475.53;;;22.59;37.82
74065;BME280;62421;51.412;5.432;2023-06-14T09:36:24;101480.28;;;22.65;36.52
74065;BME280;62421;51.412;5.432;2023-06-14T09:41:19;101471.91;;;22.75;32.99
74065;BME280;62421;51.412;5.432;2023-06-14T09:43:46;101482.69;;;22.76;31.24
74065;BME280;62421;51.412;5.432;2023-06-14T09:46:12;101472.06;;;22.81;32.24
74065;BME280;62421;51.412;5.432;2023-06-14T09:48:37;101472.06;;;22.89;33.16
74065;BME280;62421;51.412;5.432;2023-06-14T09:51:09;101481.81;;;22.92;32.76
74065;BME280;62421;51.412;5.432;2023-06-14T09:53:36;101466.91;;;22.86;30.12
74065;BME280;62421;51.412;5.432;2023-06-14T09:56:02;101477.69;;;22.96;34.13
74065;BME280;62421;51.412;5.432;2023-06-14T09:58:30;101478.22;;;23.08;31.02
74065;BME280;62421;51.412;5.432;2023-06-14T10:00:57;101480.06;;;22.99;30.40
74065;BME280;62421;51.412;5.432;2023-06-14T10:03:28;101466.25;;;23.09;32.96
74065;BME280;62421;51.412;5.432;2023-06-14T10:05:55;101464.69;;;23.15;32.68
74065;BME280;62421;51.412;5.432;2023-06-14T10:08:27;101465.53;;;23.23;31.93
74065;BME280;62421;51.412;5.432;2023-06-14T10:10:55;101470.13;;;23.31;33.32
74065;BME280;62421;51.412;5.432;2023-06-14T10:13:20;101451.78;;;23.31;32.26
74065;BME280;62421;51.412;5.432;2023-06-14T10:22:01;101461.97;;;23.54;32.17
74065;BME280;62421;51.412;5.432;2023-06-14T10:24:35;101467.59;;;23.61;32.72
74065;BME280;62421;51.412;5.432;2023-06-14T10:27:06;101467.22;;;23.64;30.25
74065;BME280;62421;51.412;5.432;2023-06-14T10:32:27;101461.13;;;23.54;29.90
74065;BME280;62421;51.412;5.432;2023-06-14T10:35:05;101466.78;;;23.52;29.53
74065;BME280;62421;51.412;5.432;2023-06-14T10:37:32;101476.75;;;23.45;31.52
74065;BME280;62421;51.412;5.432;2023-06-14T10:39:57;101471.28;;;23.45;30.75
74065;BME280;62421;51.412;5.432;2023-06-14T10:42:28;101467.63;;;23.52;30.53
74065;BME280;62421;51.412;5.432;2023-06-14T10:44:57;101478.88;;;23.66;31.07
74065;BME280;62421;51.412;5.432;2023-06-14T10:49:56;101465.13;;;23.74;30.91
74065;BME280;62421;51.412;5.432;2023-06-14T10:52:25;101472.84;;;23.79;32.12
74065;BME280;62421;51.412;5.432;2023-06-14T10:57:47;101466.91;;;23.98;33.87
74065;BME280;62421;51.412;5.432;2023-06-14T11:00:16;101470.13;;;24.10;34.73
74065;BME280;62421;51.412;5.432;2023-06-14T11:08:27;101464.19;;;24.21;33.96
74065;BME280;62421;51.412;5.432;2023-06-14T11:10:58;101462.19;;;24.15;29.94
74065;BME280;62421;51.412;5.432;2023-06-14T11:13:25;101472.19;;;24.08;31.98
74065;BME280;62421;51.412;5.432;2023-06-14T11:15:51;101471.69;;;24.04;30.49
74065;BME280;62421;51.412;5.432;2023-06-14T11:18:18;101454.16;;;24.14;31.40
74065;BME280;62421;51.412;5.432;2023-06-14T11:20:46;101461.78;;;24.26;32.85
74065;BME280;62421;51.412;5.432;2023-06-14T11:23:11;101463.59;;;24.34;30.71
74065;BME280;62421;51.412;5.432;2023-06-14T11:25:36;101463.41;;;24.36;30.34
74065;BME280;62421;51.412;5.432;2023-06-14T11:28:02;101453.91;;;24.46;30.94
74065;BME280;62421;51.412;5.432;2023-06-14T11:30:29;101458.53;;;24.46;33.10
74065;BME280;62421;51.412;5.432;2023-06-14T11:32:57;101447.41;;;24.39;30.63
74065;BME280;62421;51.412;5.432;2023-06-14T11:35:23;101454.34;;;24.35;30.70
74065;BME280;62421;51.412;5.432;2023-06-14T11:37:49;101450.97;;;24.25;29.36
74065;BME280;62421;51.412;5.432;2023-06-14T11:40:17;101461.22;;;24.31;31.69
74065;BME280;62421;51.412;5.432;2023-06-14T11:42:43;101447.13;;;24.34;31.94
74065;BME280;62421;51.412;5.432;2023-06-14T11:45:10;101461.34;;;24.38;31.06
74065;BME280;62421;51.412;5.432;2023-06-14T11:47:37;101444.09;;;24.52;31.31
74065;BME280;62421;51.412;5.432;2023-06-14T11:50:04;101452.81;;;24.56;31.43
74065;BME280;62421;51.412;5.432;2023-06-14T11:52:30;101448.41;;;24.69;33.05
74065;BME280;62421;51.412;5.432;2023-06-14T11:54:56;101444.38;;;24.80;31.02
74065;BME280;62421;51.412;5.432;2023-06-14T11:57:22;101441.72;;;24.87;33.69
74065;BME280;62421;51.412;5.432;2023-06-14T11:59:48;101448.22;;;24.71;31.75
74065;BME280;62421;51.412;5.432;2023-06-14T12:02:15;101441.56;;;24.50;30.69
74065;BME280;62421;51.412;5.432;2023-06-14T12:04:41;101436.94;;;24.43;32.77
74065;BME280;62421;51.412;5.432;2023-06-14T12:12:35;101448.41;;;24.69;30.94
74065;BME280;62421;51.412;5.432;2023-06-14T12:15:03;101459.03;;;24.49;31.14
74065;BME280;62421;51.412;5.432;2023-06-14T12:17:32;101447.88;;;24.51;32.01
74065;BME280;62421;51.412;5.432;2023-06-14T12:19:57;101441.41;;;24.44;32.98
74065;BME280;62421;51.412;5.432;2023-06-14T12:22:22;101446.69;;;24.45;33.02
74065;BME280;62421;51.412;5.432;2023-06-14T12:24:48;101457.38;;;24.40;31.17
74065;BME280;62421;51.412;5.432;2023-06-14T12:27:14;101442.31;;;24.36;32.41
74065;BME280;62421;51.412;5.432;2023-06-14T12:29:42;101444.88;;;24.38;32.36
74065;BME280;62421;51.412;5.432;2023-06-14T12:32:13;101435.38;;;24.48;32.72
74065;BME280;62421;51.412;5.432;2023-06-14T12:34:38;101443.56;;;24.57;31.86
74065;BME280;62421;51.412;5.432;2023-06-14T12:37:04;101452.91;;;24.39;31.21
74065;BME280;62421;51.412;5.432;2023-06-14T12:39:29;101448.75;;;24.43;32.33
74065;BME280;62421;51.412;5.432;2023-06-14T12:41:57;101436.44;;;24.62;32.21
74065;BME280;62421;51.412;5.432;2023-06-14T12:44:22;101449.72;;;24.73;31.07
74065;BME280;62421;51.412;5.432;2023-06-14T12:46:48;101444.88;;;24.61;30.28
74065;BME280;62421;51.412;5.432;2023-06-14T12:49:16;101443.06;;;24.53;30.87
74065;BME280;62421;51.412;5.432;2023-06-14T12:51:42;101450.00;;;24.64;32.10
74065;BME280;62421;51.412;5.432;2023-06-14T12:54:07;101454.28;;;24.81;31.68
74065;BME280;62421;51.412;5.432;2023-06-14T12:56:32;101448.91;;;24.88;31.98
74065;BME280;62421;51.412;5.432;2023-06-14T12:58:58;101453.09;;;24.99;31.36
74065;BME280;62421;51.412;5.432;2023-06-14T13:01:24;101449.97;;;24.87;29.91
74065;BME280;62421;51.412;5.432;2023-06-14T13:03:50;101446.44;;;24.78;31.59
74065;BME280;62421;51.412;5.432;2023-06-14T13:06:17;101447.53;;;24.69;30.41
74065;BME280;62421;51.412;5.432;2023-06-14T13:08:42;101456.16;;;24.66;32.09
74065;BME280;62421;51.412;5.432;2023-06-14T13:11:08;101463.78;;;24.56;30.16
74065;BME280;62421;51.412;5.432;2023-06-14T13:13:34;101459.16;;;24.56;31.80
74065;BME280;62421;51.412;5.432;2023-06-14T13:16:00;101465.41;;;24.65;30.36
74065;BME280;62421;51.412;5.432;2023-06-14T13:18:26;101468.25;;;24.57;30.68
74065;BME280;62421;51.412;5.432;2023-06-14T13:20:51;101445.81;;;24.53;31.87